Time;durP1;ratioP1;P1;durP2;ratioP2;P2;SDS_P1;SDS_P2;PMS_P1;PMS_P2;Temp;Humidity;BMP_temperature;BMP_pressure;BME280_temperature;BME280_humidity;BME280_pressure;Samples;Min_cycle;Max_cycle;Signal;HPM_P1;HPM_P2
2022/12/12 00:00:10;;;;;;;;;36.00;24.00;;;;;0.35;70.36;100663.28;5099283;27;45373;-48
2022/12/12 00:02:37;;;;;;;;;30.75;26.75;;;;;0.36;69.82;100646.63;5099324;27;45431;-52
2022/12/12 00:05:05;;;;;;;;;36.25;23.75;;;;;0.27;70.67;100652.38;5098996;27;46202;-53
2022/12/12 00:07:30;;;;;;;;;39.00;28.50;;;;;0.28;70.78;100656.69;5098716;27;45415;-51
2022/12/12 00:09:56;;;;;;;;;25.75;18.75;;;;;0.34;70.63;100656.31;5098803;27;45641;-53
2022/12/12 00:12:21;;;;;;;;;29.00;19.00;;;;;0.37;70.40;100653.56;5099360;27;45400;-51
2022/12/12 00:14:46;;;;;;;;;21.25;14.50;;;;;0.37;70.29;100653.56;5098766;27;45373;-51
2022/12/12 00:17:12;;;;;;;;;31.50;23.00;;;;;0.38;70.11;100657.84;5097586;27;45426;-53
2022/12/12 00:19:37;;;;;;;;;24.50;20.25;;;;;0.36;70.11;100651.88;5098955;27;45324;-51
2022/12/12 00:22:02;;;;;;;;;25.00;24.50;;;;;0.24;70.54;100630.66;5098982;27;45348;-53
2022/12/12 00:24:28;;;;;;;;;40.25;21.50;;;;;0.32;70.10;100653.81;5098638;27;45451;-51
2022/12/12 00:26:53;;;;;;;;;24.75;20.75;;;;;0.39;69.79;100664.78;5097416;27;45367;-53
2022/12/12 00:29:18;;;;;;;;;32.00;17.00;;;;;0.31;70.12;100659.97;5098812;27;45468;-54
2022/12/12 00:31:43;;;;;;;;;23.75;20.00;;;;;0.34;70.18;100651.09;5098664;27;45252;-54
2022/12/12 00:34:09;;;;;;;;;22.00;20.75;;;;;0.34;70.23;100665.06;5098560;27;46182;-51
2022/12/12 00:36:34;;;;;;;;;22.25;20.00;;;;;0.30;70.55;100657.44;5098570;27;45239;-51
2022/12/12 00:39:00;;;;;;;;;29.00;24.75;;;;;0.27;69.71;100660.22;5097252;27;45513;-53
2022/12/12 00:41:26;;;;;;;;;28.00;21.25;;;;;0.29;69.75;100664.44;5098640;27;45425;-54
2022/12/12 00:43:52;;;;;;;;;20.25;17.75;;;;;0.31;70.33;100677.44;5098454;27;46318;-54
2022/12/12 00:46:21;;;;;;;;;17.75;17.50;;;;;0.18;70.87;100657.19;5098401;27;45438;-55
2022/12/12 00:48:47;;;;;;;;;28.00;21.50;;;;;0.38;70.13;100679.66;5098195;27;45426;-52
2022/12/12 00:51:18;;;;;;;;;32.00;23.00;;;;;0.43;70.07;100684.63;5098320;27;45303;-55
2022/12/12 00:53:43;;;;;;;;;23.00;21.75;;;;;0.43;70.07;100677.63;5097809;27;46495;-51
2022/12/12 00:56:09;;;;;;;;;25.00;20.00;;;;;0.45;70.43;100681.00;5098287;27;45772;-53
2022/12/12 00:58:34;;;;;;;;;31.25;20.00;;;;;0.45;70.50;100670.53;5097077;27;45450;-53
2022/12/12 01:01:05;;;;;;;;;34.50;23.75;;;;;0.50;69.81;100667.66;5098583;27;45243;-54
2022/12/12 01:03:35;;;;;;;;;32.75;24.25;;;;;0.54;69.65;100668.31;5098191;27;46226;-54
2022/12/12 01:06:02;;;;;;;;;32.50;22.00;;;;;0.52;69.55;100664.97;5098209;27;45361;-53
2022/12/12 01:08:28;;;;;;;;;21.75;19.50;;;;;0.47;69.38;100666.06;5098232;27;45343;-53
2022/12/12 01:10:54;;;;;;;;;23.00;20.50;;;;;0.50;69.05;100665.88;5098010;27;45317;-53
2022/12/12 01:13:19;;;;;;;;;23.50;17.50;;;;;0.47;68.75;100667.84;5097935;27;45523;-53
2022/12/12 01:15:44;;;;;;;;;23.50;21.25;;;;;0.42;69.34;100664.59;5097938;27;45371;-55
2022/12/12 01:18:10;;;;;;;;;37.50;24.75;;;;;0.37;68.93;100667.47;5097440;27;45356;-55
2022/12/12 01:20:35;;;;;;;;;23.75;19.75;;;;;0.33;69.34;100660.72;5098106;27;45382;-53
2022/12/12 01:23:00;;;;;;;;;29.25;24.25;;;;;0.34;69.56;100661.56;5097965;27;46210;-52
2022/12/12 01:25:26;;;;;;;;;28.75;21.00;;;;;0.29;69.33;100661.81;5097872;27;45248;-54
2022/12/12 01:27:51;;;;;;;;;29.00;20.00;;;;;0.29;70.27;100674.06;5098059;27;45307;-54
2022/12/12 01:30:20;;;;;;;;;23.00;21.00;;;;;0.29;69.83;100671.44;5098042;27;45214;-52
2022/12/12 01:32:45;;;;;;;;;24.50;23.00;;;;;0.35;70.16;100677.19;5097666;27;45309;-55
2022/12/12 01:35:11;;;;;;;;;26.00;22.25;;;;;0.34;69.57;100669.41;5097640;27;45345;-54
2022/12/12 01:37:38;;;;;;;;;29.75;21.00;;;;;0.42;69.21;100675.94;5097600;27;45385;-56
2022/12/12 01:40:07;;;;;;;;;29.00;20.50;;;;;0.43;69.28;100684.63;5097855;27;45396;-52
2022/12/12 01:42:32;;;;;;;;;22.00;19.00;;;;;0.46;68.90;100679.22;5097357;27;46928;-56
2022/12/12 01:44:58;;;;;;;;;19.00;12.25;;;;;0.46;69.39;100682.69;5097591;27;45326;-54
2022/12/12 01:47:25;;;;;;;;;24.25;17.50;;;;;0.44;68.94;100683.69;5097513;27;45198;-55
2022/12/12 01:49:57;;;;;;;;;39.50;26.00;;;;;0.42;68.86;100683.78;5097714;27;45218;-55
2022/12/12 01:52:30;;;;;;;;;29.50;22.50;;;;;0.38;69.06;100677.03;5097319;27;47796;-56
2022/12/12 01:54:59;;;;;;;;;25.75;17.00;;;;;0.40;68.82;100674.31;5097267;27;45381;-53
2022/12/12 01:57:29;;;;;;;;;32.25;23.25;;;;;0.40;69.14;100682.19;5097458;27;45358;-55
2022/12/12 01:59:56;;;;;;;;;27.25;24.50;;;;;0.35;68.30;100679.81;5097490;27;45424;-55
2022/12/12 02:02:22;;;;;;;;;32.25;21.25;;;;;0.37;69.12;100679.72;5097343;27;46538;-55
2022/12/12 02:04:47;;;;;;;;;33.75;27.75;;;;;0.37;68.98;100685.78;5097288;27;45177;-55
2022/12/12 02:07:13;;;;;;;;;40.00;24.50;;;;;0.36;68.95;100686.72;5097600;27;45232;-54
2022/12/12 02:09:39;;;;;;;;;24.75;19.50;;;;;0.33;68.95;100684.28;5097329;27;45293;-54
2022/12/12 02:12:05;;;;;;;;;37.00;25.00;;;;;0.06;69.02;100649.16;5096976;27;46160;-52
2022/12/12 02:14:42;;;;;;;;;35.25;27.25;;;;;0.27;68.92;100686.38;5097148;27;45369;-55
2022/12/12 02:17:26;;;;;;;;;33.75;25.00;;;;;0.27;69.10;100689.00;5097235;27;45429;-53
2022/12/12 02:20:29;;;;;;;;;25.50;16.50;;;;;0.28;68.93;100685.44;5097418;27;45499;-53
2022/12/12 02:23:29;;;;;;;;;20.00;16.75;;;;;0.24;69.44;100684.78;5097044;27;46253;-53
2022/12/12 02:26:31;;;;;;;;;29.00;20.00;;;;;0.20;69.18;100683.25;5013529;28;45349;-52
2022/12/12 02:29:27;;;;;;;;;32.50;21.50;;;;;0.23;69.20;100678.69;5013989;28;45503;-55
2022/12/12 02:32:14;;;;;;;;;28.50;18.00;;;;;0.24;69.16;100680.38;5017646;28;45451;-54
2022/12/12 02:35:07;;;;;;;;;30.00;19.00;;;;;0.27;69.48;100684.63;5017227;28;46355;-53
2022/12/12 02:38:00;;;;;;;;;28.75;20.50;;;;;0.30;69.22;100681.00;5016758;28;45533;-53
2022/12/12 02:40:49;;;;;;;;;22.00;19.50;;;;;0.29;69.62;100680.13;5017379;28;45599;-53
2022/12/12 02:43:32;;;;;;;;;22.50;19.25;;;;;0.34;69.29;100688.59;5017586;28;45407;-53
2022/12/12 02:46:12;;;;;;;;;30.25;18.75;;;;;0.39;69.55;100688.34;5017080;28;45996;-52
2022/12/12 02:48:45;;;;;;;;;31.25;20.00;;;;;0.41;68.83;100684.69;5017051;28;45353;-51
2022/12/12 02:51:13;;;;;;;;;33.00;18.50;;;;;0.43;69.10;100688.09;5017279;28;45556;-48
2022/12/12 02:53:38;;;;;;;;;24.50;19.50;;;;;0.46;69.29;100687.06;5017590;28;45458;-53
2022/12/12 02:56:28;;;;;;;;;25.50;20.50;;;;;0.48;69.03;100690.47;5016880;28;46263;-55
2022/12/12 02:58:54;;;;;;;;;31.50;22.75;;;;;0.52;69.06;100676.28;5017206;28;45576;-53
2022/12/12 03:01:33;;;;;;;;;30.50;19.75;;;;;0.58;69.25;100685.56;5026861;27;45546;-51
2022/12/12 03:10:10;;;;;;;;;33.50;19.50;;;;;0.55;68.77;100670.88;5099580;27;45224;-53
2022/12/12 03:12:47;;;;;;;;;26.50;17.00;;;;;0.53;68.99;100670.09;5100073;27;45391;-52
2022/12/12 03:15:16;;;;;;;;;19.25;11.50;;;;;0.57;68.84;100674.25;5100345;27;45499;-53
2022/12/12 03:17:49;;;;;;;;;25.25;25.00;;;;;0.57;69.10;100674.25;5100070;27;46284;-55
2022/12/12 03:20:49;;;;;;;;;24.25;18.75;;;;;0.59;69.31;100672.41;5099643;27;45548;-55
2022/12/12 03:23:21;;;;;;;;;24.25;16.50;;;;;0.62;68.69;100660.91;5099886;27;45386;-54
2022/12/12 03:26:03;;;;;;;;;27.75;19.75;;;;;0.61;68.56;100664.44;5100060;27;45318;-52
2022/12/12 03:28:34;;;;;;;;;34.50;19.00;;;;;0.60;68.74;100668.84;5099579;27;46222;-55
2022/12/12 03:31:04;;;;;;;;;31.50;20.50;;;;;0.63;68.67;100668.69;5099725;27;45329;-55
2022/12/12 03:33:51;;;;;;;;;15.25;11.50;;;;;0.62;69.03;100659.13;5099751;27;45377;-55
2022/12/12 03:36:24;;;;;;;;;28.00;21.75;;;;;0.63;68.88;100659.97;5100009;27;45308;-54
2022/12/12 03:38:57;;;;;;;;;27.50;19.50;;;;;0.64;68.93;100662.50;5099359;27;45973;-54
2022/12/12 03:41:29;;;;;;;;;21.25;18.50;;;;;0.55;68.81;100651.69;5098747;27;45380;-52
2022/12/12 03:44:04;;;;;;;;;22.00;16.50;;;;;0.62;69.29;100661.75;5099405;27;45519;-53
2022/12/12 03:46:35;;;;;;;;;18.25;17.50;;;;;0.69;69.16;100668.34;5099571;27;45375;-53
2022/12/12 03:49:05;;;;;;;;;22.50;17.50;;;;;0.71;68.90;100671.69;5098950;27;46410;-56
2022/12/12 03:51:34;;;;;;;;;29.00;17.25;;;;;0.71;68.51;100666.47;5099463;27;45439;-51
2022/12/12 03:54:30;;;;;;;;;29.75;15.25;;;;;0.74;69.13;100682.00;5099155;27;45322;-51
2022/12/12 03:57:14;;;;;;;;;31.50;18.25;;;;;0.70;69.09;100679.66;5097416;27;45723;-53
2022/12/12 03:59:58;;;;;;;;;20.25;18.25;;;;;0.69;68.80;100681.41;5099164;27;45358;-53
2022/12/12 04:02:37;;;;;;;;;23.25;18.75;;;;;0.72;69.01;100683.88;5099131;27;45325;-51
2022/12/12 04:05:11;;;;;;;;;25.25;23.00;;;;;0.74;68.86;100691.63;5099114;27;45414;-49
2022/12/12 04:07:42;;;;;;;;;19.50;17.50;;;;;0.64;68.88;100675.59;5099417;27;45427;-49
2022/12/12 04:13:02;;;;;;;;;27.25;18.50;;;;;0.76;68.73;100697.66;5099045;27;45383;-53
2022/12/12 04:15:58;;;;;;;;;24.50;14.00;;;;;0.67;68.72;100685.03;5099132;27;45251;-55
2022/12/12 04:18:27;;;;;;;;;23.50;20.50;;;;;0.74;68.96;100691.63;5084536;27;45254;-52
2022/12/12 04:24:08;;;;;;;;;26.00;19.00;;;;;0.75;68.95;100702.00;5098980;27;45320;-52
2022/12/12 04:26:41;;;;;;;;;31.00;19.25;;;;;0.76;68.90;100695.03;5098979;27;45366;-53
2022/12/12 04:29:15;;;;;;;;;16.50;11.50;;;;;0.80;68.95;100698.28;5099059;27;45329;-51
2022/12/12 04:32:14;;;;;;;;;18.75;16.25;;;;;0.82;68.38;100701.69;5098832;27;45527;-52
2022/12/12 04:35:04;;;;;;;;;17.00;12.75;;;;;0.85;68.67;100701.53;5016419;28;45401;-53
2022/12/12 04:37:37;;;;;;;;;26.00;18.00;;;;;0.87;68.55;100703.13;5016315;28;45349;-53
2022/12/12 04:40:07;;;;;;;;;23.25;18.00;;;;;0.88;68.30;100704.78;5016741;28;45453;-53
2022/12/12 04:42:39;;;;;;;;;17.50;12.75;;;;;0.87;68.54;100703.13;5015642;28;45580;-51
2022/12/12 04:45:16;;;;;;;;;25.50;20.50;;;;;0.85;68.35;100701.53;5015480;28;45437;-50
2022/12/12 04:47:46;;;;;;;;;21.75;15.00;;;;;0.82;68.82;100707.78;5015601;28;45372;-51
2022/12/12 04:50:12;;;;;;;;;34.75;26.50;;;;;0.85;68.76;100709.38;5015754;28;45476;-55
2022/12/12 04:52:40;;;;;;;;;30.00;20.50;;;;;0.87;68.51;100712.75;5014838;28;47316;-50
2022/12/12 04:55:09;;;;;;;;;24.00;16.50;;;;;0.88;68.48;100701.34;5014570;28;45380;-51
2022/12/12 04:57:40;;;;;;;;;29.75;21.00;;;;;0.89;68.78;100703.03;5015298;28;45311;-48
2022/12/12 05:00:08;;;;;;;;;26.00;23.25;;;;;0.86;68.31;100700.59;5015478;28;45463;-50
2022/12/12 05:02:39;;;;;;;;;32.75;23.00;;;;;0.87;68.45;100708.34;5014659;28;45387;-54
2022/12/12 05:05:11;;;;;;;;;19.00;17.00;;;;;0.88;68.76;100703.94;5015029;28;45484;-51
2022/12/12 05:07:39;;;;;;;;;23.75;18.75;;;;;0.89;68.15;100705.66;5015053;28;45362;-49
2022/12/12 05:10:09;;;;;;;;;33.25;24.50;;;;;0.81;68.77;100686.91;5025409;27;45475;-50
2022/12/12 05:12:45;;;;;;;;;21.75;18.75;;;;;0.89;68.30;100709.13;5097685;27;46088;-50
2022/12/12 05:15:13;;;;;;;;;26.75;21.75;;;;;0.77;68.62;100685.41;5097960;27;45277;-50
2022/12/12 05:17:44;;;;;;;;;22.50;17.00;;;;;0.90;68.77;100707.34;5098183;27;45338;-53
2022/12/12 05:20:10;;;;;;;;;35.25;23.50;;;;;0.93;68.42;100717.66;5098368;27;45427;-49
2022/12/12 05:22:35;;;;;;;;;27.00;19.50;;;;;0.92;68.32;100715.94;5097655;27;46211;-50
2022/12/12 05:25:01;;;;;;;;;21.75;15.25;;;;;0.93;68.28;100715.03;5097880;27;45242;-51
2022/12/12 05:27:26;;;;;;;;;24.25;15.50;;;;;0.85;68.50;100698.91;5097949;27;45437;-49
2022/12/12 05:29:51;;;;;;;;;34.75;24.75;;;;;0.87;68.69;100713.59;5098015;27;45437;-50
2022/12/12 05:32:17;;;;;;;;;26.50;24.50;;;;;0.88;68.73;100703.94;5097596;27;45966;-50
2022/12/12 05:34:42;;;;;;;;;30.00;21.50;;;;;0.86;68.69;100697.97;5097587;27;45343;-51
2022/12/12 05:37:07;;;;;;;;;27.50;23.50;;;;;0.82;68.85;100696.44;5097614;27;45386;-53
2022/12/12 05:39:33;;;;;;;;;29.25;24.00;;;;;0.74;69.10;100696.88;5097715;27;45325;-52
2022/12/12 05:41:58;;;;;;;;;28.00;22.25;;;;;0.76;69.22;100689.78;5097328;27;46033;-51
2022/12/12 05:44:23;;;;;;;;;28.00;20.25;;;;;0.78;68.72;100689.69;5097436;27;45332;-51
2022/12/12 05:46:49;;;;;;;;;27.00;23.00;;;;;0.85;69.69;100698.91;5097327;27;45314;-50
2022/12/12 05:49:14;;;;;;;;;30.50;23.00;;;;;0.83;69.47;100696.34;5097754;27;45344;-50
2022/12/12 05:51:39;;;;;;;;;24.25;20.00;;;;;0.84;68.84;100689.34;5097159;27;46119;-54
2022/12/12 05:54:05;;;;;;;;;31.25;22.50;;;;;0.85;69.29;100688.44;5097301;27;45383;-49
2022/12/12 05:56:30;;;;;;;;;27.25;20.50;;;;;0.87;68.87;100694.41;5097503;27;45384;-54
2022/12/12 05:58:55;;;;;;;;;27.50;20.50;;;;;0.83;69.19;100690.28;5097768;27;45393;-54
2022/12/12 06:01:20;;;;;;;;;26.75;15.00;;;;;0.84;68.86;100698.03;5097326;27;45336;-53
2022/12/12 06:03:46;;;;;;;;;24.50;18.00;;;;;0.83;69.04;100703.38;5097214;27;45477;-53
2022/12/12 06:06:11;;;;;;;;;28.75;18.50;;;;;0.77;68.92;100694.09;5100584;27;45276;-51
2022/12/12 06:08:37;;;;;;;;;27.75;23.50;;;;;0.85;68.48;100704.16;5101326;27;45275;-51
2022/12/12 06:11:06;;;;;;;;;36.00;23.50;;;;;0.79;68.76;100707.09;5100728;27;45337;-51
2022/12/12 06:13:32;;;;;;;;;27.25;19.00;;;;;0.75;69.11;100706.41;5100892;27;45384;-54
2022/12/12 06:15:57;;;;;;;;;30.50;24.00;;;;;0.77;69.20;100712.41;5100983;27;45359;-49
2022/12/12 06:18:22;;;;;;;;;31.00;24.50;;;;;0.78;69.42;100703.63;5101126;27;45497;-54
2022/12/12 06:20:48;;;;;;;;;32.00;21.25;;;;;0.84;68.93;100708.50;5100766;27;46215;-52
2022/12/12 06:23:13;;;;;;;;;32.25;24.75;;;;;0.86;68.51;100717.13;5100601;27;45419;-54
2022/12/12 06:25:38;;;;;;;;;32.75;24.50;;;;;0.78;68.82;100706.25;5100952;27;45260;-50
2022/12/12 06:28:04;;;;;;;;;31.75;22.50;;;;;0.82;69.63;100713.00;5100804;27;45336;-54
2022/12/12 06:30:29;;;;;;;;;31.00;21.50;;;;;0.83;68.81;100708.59;5100490;27;46958;-51
2022/12/12 06:32:55;;;;;;;;;27.25;22.50;;;;;0.88;68.29;100717.03;5100626;27;45407;-53
2022/12/12 06:35:20;;;;;;;;;30.50;26.00;;;;;0.87;68.69;100723.22;5100609;27;45289;-53
2022/12/12 06:37:47;;;;;;;;;26.75;23.00;;;;;0.87;68.71;100725.84;5101005;27;45388;-53
2022/12/12 06:40:13;;;;;;;;;33.25;25.00;;;;;0.89;69.04;100721.38;5100351;27;47099;-52
2022/12/12 06:42:38;;;;;;;;;40.00;26.50;;;;;0.84;68.43;100720.75;5100381;27;45274;-54
2022/12/12 06:45:05;;;;;;;;;37.75;25.50;;;;;0.90;68.30;100721.28;5100551;27;45215;-54
2022/12/12 06:47:30;;;;;;;;;30.50;26.50;;;;;0.86;68.08;100729.41;5100351;27;45403;-55
2022/12/12 06:49:56;;;;;;;;;30.25;25.75;;;;;0.81;68.49;100711.31;5100268;27;45945;-54
2022/12/12 06:52:21;;;;;;;;;30.00;21.75;;;;;0.86;68.05;100711.91;5100327;27;45300;-55
2022/12/12 06:54:47;;;;;;;;;30.25;23.50;;;;;0.88;68.93;100722.28;5100252;27;45357;-53
2022/12/12 06:57:12;;;;;;;;;36.25;25.50;;;;;0.87;68.33;100721.44;5100468;27;45490;-52
2022/12/12 06:59:37;;;;;;;;;31.25;23.25;;;;;0.84;68.18;100718.97;5099730;27;46061;-54
2022/12/12 07:02:03;;;;;;;;;36.75;26.00;;;;;0.81;68.44;100716.56;5100172;27;45393;-51
2022/12/12 07:04:28;;;;;;;;;31.50;22.50;;;;;0.81;68.20;100713.09;5100264;27;45826;-52
2022/12/12 07:06:54;;;;;;;;;32.75;27.25;;;;;0.71;68.43;100690.03;5115955;27;45544;-53
2022/12/12 07:09:19;;;;;;;;;28.50;24.50;;;;;0.81;68.62;100694.78;5099921;27;46538;-54
2022/12/12 07:11:45;;;;;;;;;37.50;26.50;;;;;0.79;68.45;100700.06;5099678;27;45444;-51
2022/12/12 07:14:11;;;;;;;;;26.00;23.00;;;;;0.66;68.49;100684.19;5100224;27;45420;-50
2022/12/12 07:16:37;;;;;;;;;39.50;28.50;;;;;0.77;68.51;100701.94;5098972;27;45436;-52
2022/12/12 07:19:03;;;;;;;;;40.25;26.75;;;;;0.67;68.43;100695.50;5099731;27;45382;-50
2022/12/12 07:21:29;;;;;;;;;31.75;20.50;;;;;0.70;68.19;100716.31;5099779;27;45373;-50
2022/12/12 07:23:55;;;;;;;;;41.25;31.50;;;;;0.66;68.02;100731.31;5099940;27;45306;-51
2022/12/12 07:26:22;;;;;;;;;41.50;25.00;;;;;0.66;69.05;100735.72;5100056;27;45242;-52
2022/12/12 07:28:49;;;;;;;;;41.75;26.00;;;;;0.65;68.42;100734.88;5099561;27;45562;-53
2022/12/12 07:31:17;;;;;;;;;27.75;22.50;;;;;0.63;68.82;100739.38;5099544;27;45405;-51
2022/12/12 07:33:43;;;;;;;;;30.50;23.75;;;;;0.56;68.55;100743.25;5099936;27;45222;-50
2022/12/12 07:36:09;;;;;;;;;35.75;25.75;;;;;0.56;68.10;100740.63;5099899;27;45393;-52
2022/12/12 07:38:35;;;;;;;;;42.00;25.50;;;;;0.59;68.49;100737.84;5099574;27;45358;-51
2022/12/12 07:41:06;;;;;;;;;29.00;23.50;;;;;0.63;68.77;100746.34;5098225;27;45323;-53
2022/12/12 07:43:33;;;;;;;;;21.25;18.00;;;;;0.63;68.18;100742.00;5099571;27;45243;-50
2022/12/12 07:45:59;;;;;;;;;39.00;25.25;;;;;0.67;68.83;100737.41;5099946;27;45273;-53
2022/12/12 07:48:27;;;;;;;;;29.00;22.00;;;;;0.71;68.84;100731.06;5099296;27;45362;-53
2022/12/12 07:50:52;;;;;;;;;32.00;28.50;;;;;0.73;68.44;100737.94;5099352;27;45418;-50
2022/12/12 07:53:17;;;;;;;;;34.50;28.25;;;;;0.74;68.24;100738.75;5099658;27;45741;-53
2022/12/12 07:55:43;;;;;;;;;31.75;20.75;;;;;0.76;68.54;100739.53;5099630;27;45298;-50
2022/12/12 07:58:08;;;;;;;;;36.25;24.00;;;;;0.78;68.35;100742.91;5099400;27;45486;-52
2022/12/12 08:00:33;;;;;;;;;17.75;15.00;;;;;0.79;68.21;100754.22;5099225;27;45268;-52
2022/12/12 08:02:59;;;;;;;;;33.00;24.25;;;;;0.77;68.46;100750.84;5099506;27;45739;-53
2022/12/12 08:05:24;;;;;;;;;37.75;30.25;;;;;0.79;68.36;100751.59;5099647;27;45358;-50
2022/12/12 08:07:49;;;;;;;;;34.25;24.75;;;;;0.79;68.30;100751.59;5098978;27;46271;-54
2022/12/12 08:10:15;;;;;;;;;35.00;29.00;;;;;0.65;68.05;100744.50;5098995;27;45401;-50
2022/12/12 08:12:40;;;;;;;;;44.50;30.75;;;;;0.73;68.18;100765.88;5099185;27;45290;-50
2022/12/12 08:15:06;;;;;;;;;34.75;27.00;;;;;0.73;68.02;100771.13;5099127;27;45479;-55
2022/12/12 08:17:31;;;;;;;;;23.75;20.00;;;;;0.75;67.86;100769.25;5098946;27;45426;-52
2022/12/12 08:19:57;;;;;;;;;40.50;31.50;;;;;0.70;67.87;100764.25;5098964;27;45243;-51
2022/12/12 08:22:22;;;;;;;;;43.25;31.00;;;;;0.77;67.49;100769.19;5099123;27;45347;-50
2022/12/12 08:24:48;;;;;;;;;46.50;36.25;;;;;0.73;67.19;100758.88;5099784;27;45246;-52
2022/12/12 08:27:14;;;;;;;;;40.25;30.75;;;;;0.74;67.74;100760.56;5099466;27;46266;-53
2022/12/12 08:29:39;;;;;;;;;33.50;21.75;;;;;0.75;67.87;100769.25;5099617;27;45232;-55
2022/12/12 08:32:05;;;;;;;;;36.00;25.00;;;;;0.70;66.84;100766.88;5099486;27;45205;-50
2022/12/12 08:34:30;;;;;;;;;31.50;25.75;;;;;0.65;67.22;100768.91;5099358;27;45361;-55
2022/12/12 08:36:56;;;;;;;;;27.00;23.50;;;;;0.64;67.25;100771.63;5114655;27;47412;-55
2022/12/12 08:39:21;;;;;;;;;25.50;19.50;;;;;0.64;66.87;100780.31;5098563;27;45392;-53
2022/12/12 08:41:47;;;;;;;;;28.25;24.25;;;;;0.66;66.48;100788.91;5098895;27;45580;-54
2022/12/12 08:44:14;;;;;;;;;30.50;27.50;;;;;0.66;67.38;100794.16;5098792;27;45454;-50
2022/12/12 08:46:40;;;;;;;;;45.50;30.75;;;;;0.70;66.81;100800.06;5098346;27;46328;-54
2022/12/12 08:49:06;;;;;;;;;30.00;24.75;;;;;0.70;67.12;100803.53;5098313;27;45306;-52
2022/12/12 08:51:33;;;;;;;;;34.75;28.50;;;;;0.60;66.87;100797.13;5098454;27;45325;-54
2022/12/12 08:53:58;;;;;;;;;26.75;21.25;;;;;0.59;66.93;100805.91;5098666;27;45373;-54
2022/12/12 08:56:23;;;;;;;;;38.00;22.50;;;;;0.57;66.76;100802.50;5098327;27;45895;-52
2022/12/12 08:58:49;;;;;;;;;36.50;28.50;;;;;0.54;67.32;100807.91;5098309;27;45359;-50
2022/12/12 09:01:20;;;;;;;;;44.00;29.00;;;;;0.56;66.87;100798.19;5098324;27;45207;-51
2022/12/12 09:03:46;;;;;;;;;36.00;24.75;;;;;0.58;67.20;100801.56;5098348;27;45439;-51
2022/12/12 09:06:14;;;;;;;;;33.50;26.50;;;;;0.59;66.80;100805.91;5098104;27;47113;-54
2022/12/12 09:08:40;;;;;;;;;45.50;25.25;;;;;0.56;67.22;100803.44;5098139;27;45365;-54
2022/12/12 09:11:06;;;;;;;;;33.75;32.75;;;;;0.64;67.14;100811.72;5098152;27;45432;-54
2022/12/12 09:13:32;;;;;;;;;33.00;28.75;;;;;0.66;67.22;100794.16;5098405;27;45389;-51
2022/12/12 09:15:57;;;;;;;;;35.75;27.75;;;;;0.61;67.13;100793.56;5098010;27;45450;-51
2022/12/12 09:18:23;;;;;;;;;40.25;30.00;;;;;0.64;66.87;100798.66;5097645;27;45345;-53
2022/12/12 09:20:49;;;;;;;;;37.50;34.50;;;;;0.66;67.42;100807.25;5098237;27;45489;-53
2022/12/12 09:23:15;;;;;;;;;38.75;31.75;;;;;0.63;67.49;100799.56;5098126;27;45530;-52
2022/12/12 09:25:40;;;;;;;;;39.00;27.50;;;;;0.59;66.75;100800.66;5096601;27;47230;-54
2022/12/12 09:28:06;;;;;;;;;38.75;32.50;;;;;0.61;67.16;100785.72;5097881;27;45396;-51
2022/12/12 09:30:31;;;;;;;;;35.50;28.00;;;;;0.62;66.65;100782.16;5098031;27;45428;-52
2022/12/12 09:32:57;;;;;;;;;33.00;23.00;;;;;0.66;67.09;100786.31;5098324;27;45354;-54
2022/12/12 09:35:22;;;;;;;;;31.50;28.00;;;;;0.69;66.65;100791.38;5097655;27;46106;-53
2022/12/12 09:37:48;;;;;;;;;52.25;34.75;;;;;0.71;66.89;100784.28;5098100;27;45453;-52
2022/12/12 09:40:26;;;;;;;;;39.00;26.00;;;;;0.57;66.95;100767.63;5097036;27;45209;-52
2022/12/12 09:42:52;;;;;;;;;44.50;30.50;;;;;0.68;66.68;100800.16;5097832;27;45439;-50
2022/12/12 09:45:19;;;;;;;;;35.75;26.00;;;;;0.68;66.81;100789.69;5097200;27;45444;-49
2022/12/12 09:47:48;;;;;;;;;36.50;25.75;;;;;0.63;66.70;100791.72;5097469;27;45395;-49
2022/12/12 09:50:36;;;;;;;;;43.25;30.25;;;;;0.67;67.03;100790.59;5097693;27;45463;-52
2022/12/12 09:53:05;;;;;;;;;39.75;27.50;;;;;0.67;66.68;100785.38;5097808;27;45225;-55
2022/12/12 09:55:39;;;;;;;;;55.00;33.00;;;;;0.74;66.81;100791.97;5097664;27;45455;-54
2022/12/12 09:58:16;;;;;;;;;42.00;30.00;;;;;0.78;66.52;100789.19;5097277;27;45416;-52
2022/12/12 10:00:48;;;;;;;;;35.75;29.50;;;;;0.78;66.74;100787.41;5097378;27;45433;-53
2022/12/12 10:03:48;;;;;;;;;50.25;33.50;;;;;0.68;66.12;100768.75;5097647;27;45420;-52
2022/12/12 10:06:16;;;;;;;;;33.50;24.50;;;;;0.67;66.59;100768.81;5097128;27;45551;-51
2022/12/12 10:09:00;;;;;;;;;48.75;35.50;;;;;0.73;66.34;100789.44;5097375;27;45405;-52
2022/12/12 10:11:50;;;;;;;;;25.75;24.00;;;;;0.74;66.23;100780.66;5097464;27;45385;-54
2022/12/12 10:14:25;;;;;;;;;35.00;27.00;;;;;0.70;66.64;100771.28;5097567;27;45323;-51
2022/12/12 10:16:50;;;;;;;;;40.25;33.25;;;;;0.67;66.30;100753.94;5097165;27;46053;-52
2022/12/12 10:19:24;;;;;;;;;34.00;25.75;;;;;0.63;66.11;100752.47;5097350;27;45416;-52
2022/12/12 10:21:51;;;;;;;;;29.75;23.75;;;;;0.62;66.23;100752.53;5097451;27;45351;-52
2022/12/12 10:24:32;;;;;;;;;24.50;18.25;;;;;0.64;66.45;100758.53;5097336;27;45471;-52
2022/12/12 10:27:00;;;;;;;;;39.75;29.00;;;;;0.65;66.17;100754.97;5097031;27;47402;-53
2022/12/12 10:29:26;;;;;;;;;24.25;22.50;;;;;0.70;66.24;100760.81;5097216;27;45392;-49
2022/12/12 10:31:51;;;;;;;;;38.75;24.75;;;;;0.83;65.82;100758.38;5097113;27;45247;-49
2022/12/12 10:34:47;;;;;;;;;31.00;24.50;;;;;0.83;65.16;100755.75;5097243;27;45420;-53
2022/12/12 10:37:34;;;;;;;;;39.50;30.75;;;;;0.85;65.26;100764.38;5096869;27;46313;-53
2022/12/12 10:40:24;;;;;;;;;19.75;16.00;;;;;0.46;65.47;100718.47;5096925;27;45323;-54
2022/12/12 10:43:01;;;;;;;;;41.75;32.00;;;;;0.80;65.02;100775.09;5097156;27;45436;-53
2022/12/12 10:45:35;;;;;;;;;35.25;28.25;;;;;0.81;65.51;100781.19;5097175;27;45499;-52
2022/12/12 10:48:01;;;;;;;;;37.00;20.00;;;;;0.78;65.29;100769.09;5096808;27;45935;-52
2022/12/12 10:50:41;;;;;;;;;19.00;14.00;;;;;0.76;65.18;100744.78;5097301;27;45371;-51
2022/12/12 10:53:08;;;;;;;;;42.00;27.75;;;;;0.86;65.64;100758.19;5100769;27;45368;-53
2022/12/12 10:55:50;;;;;;;;;32.75;21.75;;;;;0.85;65.41;100752.13;5100670;27;45539;-54
2022/12/12 10:58:16;;;;;;;;;35.00;25.75;;;;;0.89;65.30;100752.81;5100312;27;46152;-53
2022/12/12 11:00:44;;;;;;;;;38.75;30.50;;;;;0.85;65.49;100727.72;5100473;27;45374;-53
2022/12/12 11:03:34;;;;;;;;;40.75;27.25;;;;;0.92;65.55;100735.13;5100335;27;45321;-50
2022/12/12 11:06:04;;;;;;;;;48.25;29.75;;;;;0.93;64.64;100739.44;5100499;27;45396;-52
2022/12/12 11:08:32;;;;;;;;;46.50;26.25;;;;;0.95;64.82;100737.56;5100126;27;46193;-53
2022/12/12 11:11:04;;;;;;;;;30.00;22.75;;;;;0.98;64.81;100728.72;5099961;27;45260;-53
2022/12/12 11:13:30;;;;;;;;;30.25;26.50;;;;;1.02;64.41;100732.00;5100117;27;45382;-53
2022/12/12 11:15:59;;;;;;;;;34.75;25.25;;;;;1.44;64.21;100719.09;5100360;27;45275;-51
2022/12/12 11:18:25;;;;;;;;;37.00;28.00;;;;;2.19;62.45;100714.59;5099832;27;45421;-50
2022/12/12 11:21:06;;;;;;;;;36.75;30.00;;;;;1.96;61.94;100700.25;5100156;27;45303;-53
2022/12/12 11:23:32;;;;;;;;;50.00;26.00;;;;;1.80;62.29;100690.78;5100303;27;45424;-54
2022/12/12 11:26:04;;;;;;;;;39.25;31.00;;;;;1.88;62.33;100678.03;5100539;27;45417;-53
2022/12/12 11:28:35;;;;;;;;;26.50;24.25;;;;;2.55;62.39;100668.63;5100032;27;45387;-54
2022/12/12 11:31:05;;;;;;;;;42.75;28.00;;;;;3.06;60.33;100660.09;5099896;27;45165;-53
2022/12/12 11:33:43;;;;;;;;;43.00;36.75;;;;;3.34;59.29;100664.38;5098568;27;45357;-50
2022/12/12 11:36:14;;;;;;;;;43.25;33.25;;;;;3.65;58.18;100658.72;5100054;27;45241;-53
2022/12/12 11:38:45;;;;;;;;;35.00;30.50;;;;;3.08;58.58;100655.59;5099676;27;45469;-51
2022/12/12 11:41:11;;;;;;;;;43.25;30.00;;;;;2.61;59.13;100664.75;5099278;27;45356;-52